Etusivu
METAR-TAF:

METAR-TAF

Lentoasemat :

Hawkins Field

Jackson, Mississippi, Yhdysvallat

Leveyspiiri: 32-20-05N, Pituuspiiri: 090-13-21W, korkeus merenpinnasta: 104 m

Tämänhetkinen sää

Tämä raportti tehtiin 22 minuuttia sitten, kello 07.53 UTC
Tuuli 4 kn etelästä
Lämpötila 22°C
Kosteus 83%
Ilmanpaine 1012 hPa
Näkyvyys: 16.1 km
selkeää

METAR: KHKS 210753Z AUTO 19004KT 10SM CLR 22/19 A2989 RMK AO2 SLP111 T02220189

Aika: 03:15 (08:15 UTC)

Sääennuste

Tämä raportti tehtiin 2 tuntia ja 26 minuuttia sitten, kello 05.49 UTC
Ennuste voimassa 21. päivästä klo 06 UTC - 22. päivään klo 06 UTC
Tuuli 5 kn etelästä/kaakosta
Näkyvyys: 10 km
selkeää
From 21. päivästä klo 1600 UTC
Tuuli 10 kn etelästä/kaakosta puuskistuen 19 kn:hen
Näkyvyys: 10 km
Hajanaisia pilviä 7000 ft:n korkeudessa
From 22. päivästä klo 0000 UTC
Tuuli 5 kn etelästä/kaakosta
Näkyvyys: 10 km
selkeää

TAF: KHKS 210549Z 2106/2206 16005KT P6SM SKC FM211600 16010G19KT P6SM SCT070 FM220000 16005KT P6SM SKC

Säähavainnot ja -ennusteet yli 4000 lentoasemalta (METAR- ja TAF-raportit).

Käytössä olevat sääasemat on merkitty karttaan keltaisilla ja punaisilla pisteillä.

Aseta hiiri pisteen päälle nähdäksesi sääaseman nimen.

Klikkaa sitten nähdäksesi säähavainnot ja -ennusteet.

Kartan vaihtaminen: klikkaa mustalla rastilla varustettuja vihreitä pisteitä, niin voit zoomata sisään; viivalla varustettua vihreää pistettä, niin voit zoomata ulos tai vihreitä nuolia, niin pääset viereisille kartoille.


METAR-TAF: